sensor_id;sensor_type;location;lat;lon;timestamp;pressure;altitude;pressure_sealevel;temperature;humidity
41040;BME280;48586;50.122;18.972;2024-01-15T00:00:57;96858.13;;;-2.43;57.52
41040;BME280;48586;50.122;18.972;2024-01-15T00:04:04;96858.97;;;-2.43;57.45
41040;BME280;48586;50.122;18.972;2024-01-15T00:07:10;96845.97;;;-2.44;57.27
41040;BME280;48586;50.122;18.972;2024-01-15T00:10:16;96848.25;;;-2.40;57.80
41040;BME280;48586;50.122;18.972;2024-01-15T00:13:21;96841.56;;;-2.44;57.01
41040;BME280;48586;50.122;18.972;2024-01-15T00:16:31;96829.41;;;-2.45;56.79
41040;BME280;48586;50.122;18.972;2024-01-15T00:19:35;96825.31;;;-2.49;56.96
41040;BME280;48586;50.122;18.972;2024-01-15T00:22:42;96821.53;;;-2.45;57.30
41040;BME280;48586;50.122;18.972;2024-01-15T00:25:47;96804.94;;;-2.45;57.31
41040;BME280;48586;50.122;18.972;2024-01-15T00:28:52;96801.19;;;-2.41;56.92
41040;BME280;48586;50.122;18.972;2024-01-15T00:32:00;96804.88;;;-2.44;56.65
41040;BME280;48586;50.122;18.972;2024-01-15T00:35:06;96804.56;;;-2.52;56.87
41040;BME280;48586;50.122;18.972;2024-01-15T00:38:11;96827.44;;;-2.54;57.08
41040;BME280;48586;50.122;18.972;2024-01-15T00:41:17;96812.66;;;-2.55;56.91
41040;BME280;48586;50.122;18.972;2024-01-15T00:44:22;96806.00;;;-2.48;57.46
41040;BME280;48586;50.122;18.972;2024-01-15T00:47:31;96805.41;;;-2.51;57.10
41040;BME280;48586;50.122;18.972;2024-01-15T00:50:36;96801.34;;;-2.55;57.13
41040;BME280;48586;50.122;18.972;2024-01-15T00:53:42;96780.91;;;-2.63;57.54
41040;BME280;48586;50.122;18.972;2024-01-15T00:56:47;96781.94;;;-2.53;57.48
41040;BME280;48586;50.122;18.972;2024-01-15T00:59:53;96788.13;;;-2.54;57.51
41040;BME280;48586;50.122;18.972;2024-01-15T01:03:00;96786.94;;;-2.50;57.80
41040;BME280;48586;50.122;18.972;2024-01-15T01:06:07;96774.28;;;-2.56;57.69
41040;BME280;48586;50.122;18.972;2024-01-15T01:09:13;96800.69;;;-2.59;57.58
41040;BME280;48586;50.122;18.972;2024-01-15T01:12:19;96771.50;;;-2.65;57.19
41040;BME280;48586;50.122;18.972;2024-01-15T01:15:25;96777.00;;;-2.57;57.52
41040;BME280;48586;50.122;18.972;2024-01-15T01:18:34;96763.78;;;-2.56;57.45
41040;BME280;48586;50.122;18.972;2024-01-15T01:21:41;96766.97;;;-2.63;57.11
41040;BME280;48586;50.122;18.972;2024-01-15T01:24:46;96758.53;;;-2.56;56.74
41040;BME280;48586;50.122;18.972;2024-01-15T01:27:51;96751.09;;;-2.49;56.97
41040;BME280;48586;50.122;18.972;2024-01-15T01:30:59;96752.28;;;-2.53;56.88
41040;BME280;48586;50.122;18.972;2024-01-15T01:34:08;96739.16;;;-2.53;56.60
41040;BME280;48586;50.122;18.972;2024-01-15T01:37:15;96739.00;;;-2.63;56.25
41040;BME280;48586;50.122;18.972;2024-01-15T01:40:20;96718.97;;;-2.64;56.25
41040;BME280;48586;50.122;18.972;2024-01-15T01:43:26;96725.06;;;-2.63;56.58
41040;BME280;48586;50.122;18.972;2024-01-15T01:46:31;96728.00;;;-2.68;56.79
41040;BME280;48586;50.122;18.972;2024-01-15T01:49:41;96716.38;;;-2.64;56.46
41040;BME280;48586;50.122;18.972;2024-01-15T01:52:48;96707.03;;;-2.68;56.84
41040;BME280;48586;50.122;18.972;2024-01-15T01:55:57;96706.72;;;-2.63;56.46
41040;BME280;48586;50.122;18.972;2024-01-15T01:59:02;96700.53;;;-2.62;56.58
41040;BME280;48586;50.122;18.972;2024-01-15T02:02:09;96687.84;;;-2.69;56.29
41040;BME280;48586;50.122;18.972;2024-01-15T02:05:19;96676.53;;;-2.69;56.81
41040;BME280;48586;50.122;18.972;2024-01-15T02:08:25;96684.63;;;-2.72;56.04
41040;BME280;48586;50.122;18.972;2024-01-15T02:11:31;96682.72;;;-2.70;55.75
41040;BME280;48586;50.122;18.972;2024-01-15T02:14:37;96693.44;;;-2.73;55.67
41040;BME280;48586;50.122;18.972;2024-01-15T02:17:58;96693.94;;;-2.68;56.77
41040;BME280;48586;50.122;18.972;2024-01-15T02:21:07;96679.03;;;-2.68;57.37
41040;BME280;48586;50.122;18.972;2024-01-15T02:24:15;96677.38;;;-2.69;57.61
41040;BME280;48586;50.122;18.972;2024-01-15T02:27:21;96669.63;;;-2.70;57.64
41040;BME280;48586;50.122;18.972;2024-01-15T02:30:28;96673.75;;;-2.79;56.92
41040;BME280;48586;50.122;18.972;2024-01-15T02:33:35;96671.00;;;-2.77;57.13
41040;BME280;48586;50.122;18.972;2024-01-15T02:36:40;96677.84;;;-2.75;57.68
41040;BME280;48586;50.122;18.972;2024-01-15T02:39:47;96634.81;;;-2.83;57.91
41040;BME280;48586;50.122;18.972;2024-01-15T02:42:53;96640.53;;;-2.78;57.39
41040;BME280;48586;50.122;18.972;2024-01-15T02:45:57;96630.63;;;-2.86;57.42
41040;BME280;48586;50.122;18.972;2024-01-15T02:49:02;96631.72;;;-2.77;57.30
41040;BME280;48586;50.122;18.972;2024-01-15T02:52:07;96638.66;;;-2.76;57.96
41040;BME280;48586;50.122;18.972;2024-01-15T02:55:15;96627.84;;;-2.72;58.13
41040;BME280;48586;50.122;18.972;2024-01-15T02:58:20;96606.28;;;-2.75;56.17
41040;BME280;48586;50.122;18.972;2024-01-15T03:01:25;96602.34;;;-2.70;57.93
41040;BME280;48586;50.122;18.972;2024-01-15T03:04:30;96600.91;;;-2.74;57.51
41040;BME280;48586;50.122;18.972;2024-01-15T03:07:35;96607.00;;;-2.73;57.18
41040;BME280;48586;50.122;18.972;2024-01-15T03:10:43;96609.84;;;-2.76;56.14
41040;BME280;48586;50.122;18.972;2024-01-15T03:13:48;96599.47;;;-2.78;55.74
41040;BME280;48586;50.122;18.972;2024-01-15T03:16:52;96588.94;;;-2.65;56.94
41040;BME280;48586;50.122;18.972;2024-01-15T03:19:58;96572.13;;;-2.62;57.26
41040;BME280;48586;50.122;18.972;2024-01-15T03:23:04;96571.91;;;-2.59;57.43
41040;BME280;48586;50.122;18.972;2024-01-15T03:26:12;96595.13;;;-2.66;56.25
41040;BME280;48586;50.122;18.972;2024-01-15T03:29:17;96580.25;;;-2.65;55.77
41040;BME280;48586;50.122;18.972;2024-01-15T03:32:22;96558.91;;;-2.61;57.47
41040;BME280;48586;50.122;18.972;2024-01-15T03:35:26;96562.47;;;-2.73;56.75
41040;BME280;48586;50.122;18.972;2024-01-15T03:38:33;96567.59;;;-2.72;57.32
41040;BME280;48586;50.122;18.972;2024-01-15T03:41:40;96558.06;;;-2.73;56.29
41040;BME280;48586;50.122;18.972;2024-01-15T03:44:45;96543.31;;;-2.62;57.61
41040;BME280;48586;50.122;18.972;2024-01-15T03:47:50;96543.31;;;-2.62;57.29
41040;BME280;48586;50.122;18.972;2024-01-15T03:50:55;96532.00;;;-2.63;57.55
41040;BME280;48586;50.122;18.972;2024-01-15T03:53:59;96537.22;;;-2.74;56.18
41040;BME280;48586;50.122;18.972;2024-01-15T03:57:07;96529.00;;;-2.70;56.60
41040;BME280;48586;50.122;18.972;2024-01-15T04:00:14;96528.28;;;-2.72;56.49
41040;BME280;48586;50.122;18.972;2024-01-15T04:03:21;96529.81;;;-2.80;56.29
41040;BME280;48586;50.122;18.972;2024-01-15T04:06:26;96529.25;;;-2.73;57.00
41040;BME280;48586;50.122;18.972;2024-01-15T04:09:31;96517.22;;;-2.75;57.02
41040;BME280;48586;50.122;18.972;2024-01-15T04:12:38;96519.94;;;-2.77;56.24
41040;BME280;48586;50.122;18.972;2024-01-15T04:15:43;96505.75;;;-2.85;56.45
41040;BME280;48586;50.122;18.972;2024-01-15T04:18:48;96526.06;;;-2.65;57.24
41040;BME280;48586;50.122;18.972;2024-01-15T04:21:53;96519.59;;;-2.72;55.99
41040;BME280;48586;50.122;18.972;2024-01-15T04:24:58;96539.16;;;-2.65;57.78
41040;BME280;48586;50.122;18.972;2024-01-15T04:28:06;96533.16;;;-2.67;56.93
41040;BME280;48586;50.122;18.972;2024-01-15T04:31:20;96534.75;;;-2.64;57.07
41040;BME280;48586;50.122;18.972;2024-01-15T04:34:26;96541.50;;;-2.73;55.71
41040;BME280;48586;50.122;18.972;2024-01-15T04:37:31;96536.97;;;-2.71;55.74
41040;BME280;48586;50.122;18.972;2024-01-15T04:40:36;96553.84;;;-2.86;55.91
41040;BME280;48586;50.122;18.972;2024-01-15T04:43:43;96543.75;;;-2.69;56.77
41040;BME280;48586;50.122;18.972;2024-01-15T04:46:48;96535.75;;;-2.78;57.37
41040;BME280;48586;50.122;18.972;2024-01-15T04:49:53;96533.63;;;-2.84;57.10
41040;BME280;48586;50.122;18.972;2024-01-15T04:52:59;96527.19;;;-2.80;57.32
41040;BME280;48586;50.122;18.972;2024-01-15T04:56:06;96531.25;;;-2.76;56.56
41040;BME280;48586;50.122;18.972;2024-01-15T04:59:14;96513.63;;;-2.85;56.78
41040;BME280;48586;50.122;18.972;2024-01-15T05:02:19;96528.72;;;-2.78;56.88
41040;BME280;48586;50.122;18.972;2024-01-15T05:05:24;96538.28;;;-2.77;57.27
41040;BME280;48586;50.122;18.972;2024-01-15T05:08:28;96560.13;;;-2.89;56.32
41040;BME280;48586;50.122;18.972;2024-01-15T05:11:34;96544.09;;;-2.84;57.02
41040;BME280;48586;50.122;18.972;2024-01-15T05:14:43;96551.22;;;-2.86;56.64
41040;BME280;48586;50.122;18.972;2024-01-15T05:17:48;96542.56;;;-2.76;57.38
41040;BME280;48586;50.122;18.972;2024-01-15T05:20:53;96529.94;;;-2.71;57.62
41040;BME280;48586;50.122;18.972;2024-01-15T05:23:58;96530.53;;;-2.78;57.22
41040;BME280;48586;50.122;18.972;2024-01-15T05:27:03;96534.34;;;-2.71;57.03
41040;BME280;48586;50.122;18.972;2024-01-15T05:30:12;96542.22;;;-2.71;57.19
41040;BME280;48586;50.122;18.972;2024-01-15T05:33:17;96541.78;;;-2.65;57.11
41040;BME280;48586;50.122;18.972;2024-01-15T05:36:23;96531.75;;;-2.71;56.90
41040;BME280;48586;50.122;18.972;2024-01-15T05:39:28;96524.25;;;-2.76;56.29
41040;BME280;48586;50.122;18.972;2024-01-15T05:42:34;96520.44;;;-2.72;56.82
41040;BME280;48586;50.122;18.972;2024-01-15T05:45:43;96512.94;;;-2.76;56.20
41040;BME280;48586;50.122;18.972;2024-01-15T05:48:48;96512.09;;;-2.77;57.03
41040;BME280;48586;50.122;18.972;2024-01-15T05:51:53;96511.34;;;-2.79;56.01
41040;BME280;48586;50.122;18.972;2024-01-15T05:54:59;96518.13;;;-2.87;56.13
41040;BME280;48586;50.122;18.972;2024-01-15T05:58:05;96506.91;;;-2.89;57.06
41040;BME280;48586;50.122;18.972;2024-01-15T06:01:17;96504.91;;;-2.86;57.34
41040;BME280;48586;50.122;18.972;2024-01-15T06:04:23;96481.41;;;-2.99;56.85
41040;BME280;48586;50.122;18.972;2024-01-15T06:07:30;96523.16;;;-2.73;56.67
41040;BME280;48586;50.122;18.972;2024-01-15T06:10:35;96514.88;;;-2.91;55.24
41040;BME280;48586;50.122;18.972;2024-01-15T06:13:42;96535.97;;;-2.92;55.26
41040;BME280;48586;50.122;18.972;2024-01-15T06:16:50;96512.38;;;-2.92;55.22
41040;BME280;48586;50.122;18.972;2024-01-15T06:19:57;96517.88;;;-2.95;56.52
41040;BME280;48586;50.122;18.972;2024-01-15T06:23:03;96514.78;;;-2.89;57.17
41040;BME280;48586;50.122;18.972;2024-01-15T06:26:12;96515.00;;;-2.92;56.51
41040;BME280;48586;50.122;18.972;2024-01-15T06:29:18;96515.13;;;-2.94;55.73
41040;BME280;48586;50.122;18.972;2024-01-15T06:32:27;96510.59;;;-2.92;56.86
41040;BME280;48586;50.122;18.972;2024-01-15T06:35:33;96531.91;;;-2.97;55.74
41040;BME280;48586;50.122;18.972;2024-01-15T06:38:40;96526.16;;;-3.02;56.56
41040;BME280;48586;50.122;18.972;2024-01-15T06:41:46;96528.47;;;-2.97;57.37
41040;BME280;48586;50.122;18.972;2024-01-15T06:44:52;96529.28;;;-2.97;56.61
41040;BME280;48586;50.122;18.972;2024-01-15T06:48:01;96516.88;;;-3.06;56.19
41040;BME280;48586;50.122;18.972;2024-01-15T06:51:07;96528.66;;;-3.00;56.11
41040;BME280;48586;50.122;18.972;2024-01-15T06:57:49;96520.13;;;-2.91;57.04
41040;BME280;48586;50.122;18.972;2024-01-15T07:00:55;96543.94;;;-2.94;56.49
41040;BME280;48586;50.122;18.972;2024-01-15T07:04:03;96548.66;;;-2.99;56.11
41040;BME280;48586;50.122;18.972;2024-01-15T07:07:10;96562.50;;;-2.97;56.68
41040;BME280;48586;50.122;18.972;2024-01-15T07:10:16;96559.53;;;-2.92;57.41
41040;BME280;48586;50.122;18.972;2024-01-15T07:13:22;96561.44;;;-2.94;56.21
41040;BME280;48586;50.122;18.972;2024-01-15T07:16:28;96579.88;;;-2.96;56.94
41040;BME280;48586;50.122;18.972;2024-01-15T07:19:36;96581.22;;;-3.14;55.26
41040;BME280;48586;50.122;18.972;2024-01-15T07:22:42;96579.25;;;-3.00;56.06
41040;BME280;48586;50.122;18.972;2024-01-15T07:25:48;96579.72;;;-3.06;57.20
41040;BME280;48586;50.122;18.972;2024-01-15T07:28:56;96580.31;;;-3.02;55.74
41040;BME280;48586;50.122;18.972;2024-01-15T07:32:00;96584.28;;;-2.97;57.00
41040;BME280;48586;50.122;18.972;2024-01-15T07:35:09;96594.75;;;-2.97;56.65
41040;BME280;48586;50.122;18.972;2024-01-15T07:38:14;96589.28;;;-2.93;55.39
41040;BME280;48586;50.122;18.972;2024-01-15T07:41:20;96594.75;;;-2.97;56.19
41040;BME280;48586;50.122;18.972;2024-01-15T07:44:24;96597.69;;;-3.01;56.28
41040;BME280;48586;50.122;18.972;2024-01-15T07:47:31;96597.91;;;-3.04;55.68
41040;BME280;48586;50.122;18.972;2024-01-15T07:50:39;96607.88;;;-3.09;55.63
41040;BME280;48586;50.122;18.972;2024-01-15T07:53:46;96620.38;;;-3.13;55.23
41040;BME280;48586;50.122;18.972;2024-01-15T07:56:54;96607.56;;;-3.05;55.56
41040;BME280;48586;50.122;18.972;2024-01-15T08:00:01;96604.81;;;-3.03;55.81
41040;BME280;48586;50.122;18.972;2024-01-15T08:03:08;96611.78;;;-3.15;55.61
41040;BME280;48586;50.122;18.972;2024-01-15T08:06:16;96613.88;;;-3.07;55.63
41040;BME280;48586;50.122;18.972;2024-01-15T08:09:23;96603.75;;;-3.01;55.50
41040;BME280;48586;50.122;18.972;2024-01-15T08:12:30;96597.69;;;-3.01;55.47
41040;BME280;48586;50.122;18.972;2024-01-15T08:15:34;96578.00;;;-3.31;55.73
41040;BME280;48586;50.122;18.972;2024-01-15T08:18:41;96614.91;;;-3.10;55.34
41040;BME280;48586;50.122;18.972;2024-01-15T08:21:50;96617.19;;;-3.05;55.25
41040;BME280;48586;50.122;18.972;2024-01-15T08:24:56;96635.84;;;-3.10;54.74
41040;BME280;48586;50.122;18.972;2024-01-15T08:28:02;96625.59;;;-3.13;55.17
41040;BME280;48586;50.122;18.972;2024-01-15T08:31:11;96614.59;;;-3.05;56.45
41040;BME280;48586;50.122;18.972;2024-01-15T08:34:18;96626.88;;;-3.18;55.53
41040;BME280;48586;50.122;18.972;2024-01-15T08:37:27;96634.44;;;-3.27;57.32
41040;BME280;48586;50.122;18.972;2024-01-15T08:40:31;96614.59;;;-3.42;57.56
41040;BME280;48586;50.122;18.972;2024-01-15T08:43:37;96623.00;;;-3.49;57.04
41040;BME280;48586;50.122;18.972;2024-01-15T08:46:43;96617.72;;;-3.37;57.35
41040;BME280;48586;50.122;18.972;2024-01-15T08:49:49;96622.44;;;-3.29;56.30
41040;BME280;48586;50.122;18.972;2024-01-15T08:52:56;96634.09;;;-3.22;56.88
41040;BME280;48586;50.122;18.972;2024-01-15T08:56:04;96619.34;;;-3.23;56.45
41040;BME280;48586;50.122;18.972;2024-01-15T08:59:11;96635.88;;;-3.22;57.96
41040;BME280;48586;50.122;18.972;2024-01-15T09:02:18;96619.34;;;-3.23;58.50
41040;BME280;48586;50.122;18.972;2024-01-15T09:05:23;96640.69;;;-3.16;58.80
41040;BME280;48586;50.122;18.972;2024-01-15T09:08:33;96642.78;;;-3.21;56.87
41040;BME280;48586;50.122;18.972;2024-01-15T09:11:38;96635.28;;;-3.26;56.70
41040;BME280;48586;50.122;18.972;2024-01-15T09:14:45;96639.28;;;-3.33;57.60
41040;BME280;48586;50.122;18.972;2024-01-15T09:17:52;96651.75;;;-3.37;59.09
41040;BME280;48586;50.122;18.972;2024-01-15T09:20:59;96640.06;;;-3.20;58.61
41040;BME280;48586;50.122;18.972;2024-01-15T09:24:08;96640.59;;;-3.15;57.20
41040;BME280;48586;50.122;18.972;2024-01-15T09:27:15;96647.66;;;-3.04;55.93
41040;BME280;48586;50.122;18.972;2024-01-15T09:30:20;96647.66;;;-3.04;55.21
41040;BME280;48586;50.122;18.972;2024-01-15T09:33:27;96630.22;;;-2.92;55.04
41040;BME280;48586;50.122;18.972;2024-01-15T09:36:39;96622.94;;;-2.76;56.08
41040;BME280;48586;50.122;18.972;2024-01-15T09:39:49;96625.22;;;-2.72;55.00
41040;BME280;48586;50.122;18.972;2024-01-15T09:42:55;96622.72;;;-2.73;53.90
41040;BME280;48586;50.122;18.972;2024-01-15T09:46:02;96618.22;;;-2.60;53.30
41040;BME280;48586;50.122;18.972;2024-01-15T09:49:08;96630.69;;;-2.40;52.00
41040;BME280;48586;50.122;18.972;2024-01-15T09:52:16;96625.69;;;-2.43;52.05
41040;BME280;48586;50.122;18.972;2024-01-15T09:55:29;96614.53;;;-2.22;52.17
41040;BME280;48586;50.122;18.972;2024-01-15T09:58:37;96616.94;;;-1.97;51.80
41040;BME280;48586;50.122;18.972;2024-01-15T10:01:44;96621.63;;;-1.78;51.29
41040;BME280;48586;50.122;18.972;2024-01-15T10:04:51;96617.81;;;-1.63;49.86
41040;BME280;48586;50.122;18.972;2024-01-15T10:07:57;96616.13;;;-1.53;49.73
41040;BME280;48586;50.122;18.972;2024-01-15T10:11:09;96610.28;;;-1.45;49.04
41040;BME280;48586;50.122;18.972;2024-01-15T10:14:14;96585.69;;;-1.44;49.13
41040;BME280;48586;50.122;18.972;2024-01-15T10:17:21;96613.38;;;-1.40;48.25
41040;BME280;48586;50.122;18.972;2024-01-15T10:20:26;96618.72;;;-1.19;48.14
41040;BME280;48586;50.122;18.972;2024-01-15T10:23:33;96651.66;;;-1.04;47.61
41040;BME280;48586;50.122;18.972;2024-01-15T10:26:41;96644.38;;;-1.23;48.29
41040;BME280;48586;50.122;18.972;2024-01-15T10:29:47;96619.22;;;-1.25;47.96
41040;BME280;48586;50.122;18.972;2024-01-15T10:32:58;96645.00;;;-1.41;48.02
41040;BME280;48586;50.122;18.972;2024-01-15T10:36:10;96616.94;;;-1.41;48.40
41040;BME280;48586;50.122;18.972;2024-01-15T10:39:17;96629.25;;;-1.53;47.79
41040;BME280;48586;50.122;18.972;2024-01-15T10:42:27;96612.41;;;-1.50;48.18
41040;BME280;48586;50.122;18.972;2024-01-15T10:45:32;96612.44;;;-1.61;47.98
41040;BME280;48586;50.122;18.972;2024-01-15T10:48:39;96633.06;;;-1.45;48.67
41040;BME280;48586;50.122;18.972;2024-01-15T10:51:46;96623.28;;;-1.32;48.15
41040;BME280;48586;50.122;18.972;2024-01-15T10:54:54;96617.16;;;-1.22;47.46
41040;BME280;48586;50.122;18.972;2024-01-15T10:58:02;96621.81;;;-1.14;46.65
41040;BME280;48586;50.122;18.972;2024-01-15T11:01:10;96607.97;;;-1.05;47.20
41040;BME280;48586;50.122;18.972;2024-01-15T11:04:18;96619.44;;;-1.17;46.90
41040;BME280;48586;50.122;18.972;2024-01-15T11:07:24;96625.63;;;-1.18;46.82
41040;BME280;48586;50.122;18.972;2024-01-15T11:10:41;96657.28;;;-1.19;46.61
41040;BME280;48586;50.122;18.972;2024-01-15T11:13:51;96594.28;;;-1.42;47.29
41040;BME280;48586;50.122;18.972;2024-01-15T11:16:58;96617.47;;;-1.58;47.62
41040;BME280;48586;50.122;18.972;2024-01-15T11:20:06;96600.63;;;-1.56;47.86
41040;BME280;48586;50.122;18.972;2024-01-15T11:27:00;96606.34;;;-1.62;47.93
41040;BME280;48586;50.122;18.972;2024-01-15T11:30:10;96579.41;;;-1.75;47.76
41040;BME280;48586;50.122;18.972;2024-01-15T11:33:33;96598.59;;;-1.74;48.08
41040;BME280;48586;50.122;18.972;2024-01-15T11:37:02;96620.31;;;-1.84;48.49
41040;BME280;48586;50.122;18.972;2024-01-15T11:40:10;96620.53;;;-1.98;49.15
41040;BME280;48586;50.122;18.972;2024-01-15T11:43:16;96606.00;;;-1.91;49.40
41040;BME280;48586;50.122;18.972;2024-01-15T11:46:36;96624.44;;;-2.15;49.62
41040;BME280;48586;50.122;18.972;2024-01-15T11:50:04;96605.03;;;-2.12;49.90
41040;BME280;48586;50.122;18.972;2024-01-15T11:53:17;96601.56;;;-2.13;49.68
41040;BME280;48586;50.122;18.972;2024-01-15T11:56:32;96625.03;;;-2.11;49.61
41040;BME280;48586;50.122;18.972;2024-01-15T11:59:38;96590.97;;;-2.11;49.80
41040;BME280;48586;50.122;18.972;2024-01-15T12:02:48;96590.34;;;-2.03;49.80
41040;BME280;48586;50.122;18.972;2024-01-15T12:05:55;96580.22;;;-2.08;50.13
41040;BME280;48586;50.122;18.972;2024-01-15T12:09:08;96589.50;;;-2.15;50.20
41040;BME280;48586;50.122;18.972;2024-01-15T12:12:27;96596.75;;;-2.30;50.01
41040;BME280;48586;50.122;18.972;2024-01-15T12:15:41;96592.09;;;-2.38;50.46
41040;BME280;48586;50.122;18.972;2024-01-15T12:18:50;96590.94;;;-2.22;50.31
41040;BME280;48586;50.122;18.972;2024-01-15T12:21:55;96570.41;;;-2.28;50.19
41040;BME280;48586;50.122;18.972;2024-01-15T12:25:01;96593.09;;;-2.16;49.68
41040;BME280;48586;50.122;18.972;2024-01-15T12:28:07;96545.75;;;-2.37;50.18
41040;BME280;48586;50.122;18.972;2024-01-15T12:31:14;96598.81;;;-2.11;49.94
41040;BME280;48586;50.122;18.972;2024-01-15T12:34:22;96590.97;;;-2.11;49.87
41040;BME280;48586;50.122;18.972;2024-01-15T12:37:29;96603.31;;;-2.24;50.24
41040;BME280;48586;50.122;18.972;2024-01-15T12:40:35;96588.56;;;-2.14;50.11
41040;BME280;48586;50.122;18.972;2024-01-15T12:43:42;96588.56;;;-2.03;49.93
41040;BME280;48586;50.122;18.972;2024-01-15T12:46:49;96587.38;;;-2.10;50.08
41040;BME280;48586;50.122;18.972;2024-01-15T12:49:59;96606.69;;;-2.11;49.88
41040;BME280;48586;50.122;18.972;2024-01-15T12:53:04;96596.56;;;-2.04;50.10
41040;BME280;48586;50.122;18.972;2024-01-15T12:56:11;96615.75;;;-2.04;49.72
41040;BME280;48586;50.122;18.972;2024-01-15T12:59:17;96605.50;;;-2.07;49.90
41040;BME280;48586;50.122;18.972;2024-01-15T13:02:24;96599.28;;;-2.06;50.29
41040;BME280;48586;50.122;18.972;2024-01-15T13:05:33;96599.03;;;-2.14;50.19
41040;BME280;48586;50.122;18.972;2024-01-15T13:08:39;96602.25;;;-2.22;50.34
41040;BME280;48586;50.122;18.972;2024-01-15T13:11:45;96602.25;;;-2.22;49.89
41040;BME280;48586;50.122;18.972;2024-01-15T13:14:53;96581.75;;;-2.17;50.29
41040;BME280;48586;50.122;18.972;2024-01-15T13:18:00;96595.22;;;-2.21;50.21
41040;BME280;48586;50.122;18.972;2024-01-15T13:21:10;96596.66;;;-2.17;50.70
41040;BME280;48586;50.122;18.972;2024-01-15T13:24:16;96585.94;;;-2.14;50.30
41040;BME280;48586;50.122;18.972;2024-01-15T13:27:23;96599.06;;;-2.03;50.23
41040;BME280;48586;50.122;18.972;2024-01-15T13:30:29;96579.28;;;-2.07;49.91
41040;BME280;48586;50.122;18.972;2024-01-15T13:33:36;96584.50;;;-2.07;49.78
41040;BME280;48586;50.122;18.972;2024-01-15T13:36:45;96600.38;;;-2.08;50.12
41040;BME280;48586;50.122;18.972;2024-01-15T13:39:53;96579.25;;;-2.18;49.83
41040;BME280;48586;50.122;18.972;2024-01-15T13:42:59;96581.16;;;-2.20;49.81
41040;BME280;48586;50.122;18.972;2024-01-15T13:46:09;96587.59;;;-2.13;50.21
41040;BME280;48586;50.122;18.972;2024-01-15T13:49:14;96568.31;;;-2.12;50.08
41040;BME280;48586;50.122;18.972;2024-01-15T13:52:24;96559.50;;;-2.11;50.15
41040;BME280;48586;50.122;18.972;2024-01-15T13:55:29;96572.72;;;-2.13;50.00
41040;BME280;48586;50.122;18.972;2024-01-15T13:58:37;96565.19;;;-2.17;49.53
41040;BME280;48586;50.122;18.972;2024-01-15T14:01:43;96573.06;;;-2.06;50.33
41040;BME280;48586;50.122;18.972;2024-01-15T14:04:52;96568.41;;;-2.14;49.92
41040;BME280;48586;50.122;18.972;2024-01-15T14:08:01;96564.38;;;-2.06;50.06
41040;BME280;48586;50.122;18.972;2024-01-15T14:11:08;96579.97;;;-2.05;49.47
41040;BME280;48586;50.122;18.972;2024-01-15T14:14:14;96572.72;;;-2.01;49.37
41040;BME280;48586;50.122;18.972;2024-01-15T14:17:23;96570.44;;;-2.06;49.24
41040;BME280;48586;50.122;18.972;2024-01-15T14:20:29;96575.69;;;-2.06;49.25
41040;BME280;48586;50.122;18.972;2024-01-15T14:23:38;96571.16;;;-2.15;49.49
41040;BME280;48586;50.122;18.972;2024-01-15T14:26:44;96582.47;;;-2.26;49.20
41040;BME280;48586;50.122;18.972;2024-01-15T14:29:51;96574.47;;;-2.24;49.27
41040;BME280;48586;50.122;18.972;2024-01-15T14:32:57;96580.34;;;-2.21;49.14
41040;BME280;48586;50.122;18.972;2024-01-15T14:36:04;96581.75;;;-2.17;49.54
41040;BME280;48586;50.122;18.972;2024-01-15T14:39:14;96573.31;;;-2.20;49.41
41040;BME280;48586;50.122;18.972;2024-01-15T14:42:19;96586.28;;;-2.19;49.34
41040;BME280;48586;50.122;18.972;2024-01-15T14:45:25;96594.75;;;-2.15;48.86
41040;BME280;48586;50.122;18.972;2024-01-15T14:48:33;96594.53;;;-2.23;49.12
41040;BME280;48586;50.122;18.972;2024-01-15T14:51:38;96588.66;;;-2.16;49.22
41040;BME280;48586;50.122;18.972;2024-01-15T14:54:46;96586.53;;;-2.22;49.24
41040;BME280;48586;50.122;18.972;2024-01-15T14:57:52;96589.16;;;-2.22;49.46
41040;BME280;48586;50.122;18.972;2024-01-15T15:00:59;96586.75;;;-2.25;49.19
41040;BME280;48586;50.122;18.972;2024-01-15T15:04:05;96590.69;;;-2.30;49.57
41040;BME280;48586;50.122;18.972;2024-01-15T15:07:13;96574.81;;;-2.40;49.84
41040;BME280;48586;50.122;18.972;2024-01-15T15:10:21;96592.34;;;-2.29;49.86
41040;BME280;48586;50.122;18.972;2024-01-15T15:13:27;96599.00;;;-2.36;49.81
41040;BME280;48586;50.122;18.972;2024-01-15T15:16:33;96585.31;;;-2.29;50.06
41040;BME280;48586;50.122;18.972;2024-01-15T15:19:39;96595.41;;;-2.35;49.81
41040;BME280;48586;50.122;18.972;2024-01-15T15:22:44;96597.69;;;-2.42;50.24
41040;BME280;48586;50.122;18.972;2024-01-15T15:25:53;96601.16;;;-2.42;50.39
41040;BME280;48586;50.122;18.972;2024-01-15T15:28:58;96610.41;;;-2.49;50.22
41040;BME280;48586;50.122;18.972;2024-01-15T15:32:05;96610.06;;;-2.44;50.79
41040;BME280;48586;50.122;18.972;2024-01-15T15:35:10;96629.97;;;-2.42;50.38
41040;BME280;48586;50.122;18.972;2024-01-15T15:38:16;96604.00;;;-2.45;50.49
41040;BME280;48586;50.122;18.972;2024-01-15T15:41:24;96624.22;;;-2.47;50.31
41040;BME280;48586;50.122;18.972;2024-01-15T15:44:31;96618.88;;;-2.45;50.80
41040;BME280;48586;50.122;18.972;2024-01-15T15:47:37;96635.34;;;-2.43;50.36
41040;BME280;48586;50.122;18.972;2024-01-15T15:50:44;96605.66;;;-2.44;50.67
41040;BME280;48586;50.122;18.972;2024-01-15T15:54:09;96599.94;;;-2.38;50.54
41040;BME280;48586;50.122;18.972;2024-01-15T15:57:37;96607.56;;;-2.34;50.98
41040;BME280;48586;50.122;18.972;2024-01-15T16:00:44;96601.75;;;-2.38;50.19
41040;BME280;48586;50.122;18.972;2024-01-15T16:03:49;96618.88;;;-2.45;50.44
41040;BME280;48586;50.122;18.972;2024-01-15T16:06:55;96624.00;;;-2.44;50.65
41040;BME280;48586;50.122;18.972;2024-01-15T16:10:01;96623.28;;;-2.46;50.46
41040;BME280;48586;50.122;18.972;2024-01-15T16:13:10;96628.47;;;-2.33;50.94
41040;BME280;48586;50.122;18.972;2024-01-15T16:16:16;96637.72;;;-2.40;50.35
41040;BME280;48586;50.122;18.972;2024-01-15T16:19:22;96634.28;;;-2.29;50.32
41040;BME280;48586;50.122;18.972;2024-01-15T16:22:28;96632.63;;;-2.30;50.44
41040;BME280;48586;50.122;18.972;2024-01-15T16:25:34;96626.13;;;-2.49;50.62